Latest Weather Observations for Mandurah

IDW60901

Issued at 3:51 pm WST Sunday 30 August 2015 (issued every 10 minutes, with the page automatically refreshed every 10 minutes)

About weather observations | Map of Perth area stations | Latest observations for Perth area | Other Formats
Station Details ID: 009977 Name: MANDURAH Lat: -32.52 Lon: 115.71 Height: 3.0 m
Data from the previous 72 hours. | See also: Recent months at Mandurah
Date/Time
WST
Tmp

°C
App
Tmp
°C
Dew
Point
°C
Rel
Hum
%
Delta-T

°C
Wind Press
QNH
hPa
Press
MSL
hPa
Rain
since
9 am
mm
Dir
 
Spd
km/h
Gust
km/h
Spd
kts
Gust
kts
30/03:30pm 16.9 13.2 4.6 44 5.8 SW 13 22 7 12 1019.9 1019.9 0.0
30/03:00pm 17.7 13.7 6.6 48 5.5 WSW 17 24 9 13 1019.9 1019.9 0.0
30/02:30pm 17.6 13.6 6.5 48 5.5 WSW 17 24 9 13 1019.6 1019.6 0.0
30/02:00pm 17.9 13.9 6.7 48 5.5 WSW 17 24 9 13 1019.3 1019.3 0.0
30/01:30pm 18.0 13.9 6.2 46 5.8 WSW 17 24 9 13 1019.3 1019.3 0.0
30/01:00pm 17.6 13.6 6.5 48 5.5 WSW 17 26 9 14 1019.5 1019.5 0.0
30/12:30pm 17.9 13.8 6.4 47 5.7 SW 17 26 9 14 1019.7 1019.7 0.0
30/12:00pm 18.1 14.3 7.5 50 5.3 WSW 17 24 9 13 1020.0 1020.0 0.0
30/11:30am 17.3 13.5 5.9 47 5.5 SW 15 22 8 12 1020.3 1020.3 0.0
30/11:00am 17.2 13.7 7.0 51 5.1 SW 15 22 8 12 1020.3 1020.3 0.0
30/10:30am 16.1 12.7 7.8 58 4.2 SW 15 24 8 13 1020.1 1020.1 0.0
30/10:00am 16.4 12.0 6.5 52 4.8 SW 19 26 10 14 1019.9 1019.9 0.0
30/09:30am 16.0 11.6 7.2 56 4.4 SW 20 30 11 16 1019.6 1019.6 0.0
30/09:00am 15.6 11.2 8.8 64 3.5 SW 22 37 12 20 1019.3 1019.3 21.2
30/08:30am 15.3 11.9 7.6 60 3.8 SW 15 24 8 13 1019.1 1019.1 21.2
30/08:00am 15.1 11.1 8.3 64 3.4 SSW 19 28 10 15 1018.6 1018.6 21.2
30/07:30am 15.1 11.9 8.3 64 3.4 SW 15 22 8 12 1018.0 1018.0 21.2
30/07:00am 14.6 12.3 9.0 69 2.8 SSW 11 17 6 9 1017.5 1017.5 21.2
30/06:30am 14.6 12.5 9.6 72 2.6 SSW 11 19 6 10 1017.0 1017.0 21.2
30/06:00am 14.3 12.4 10.5 78 2.0 SSW 11 19 6 10 1016.5 1016.5 21.2
30/05:30am 14.9 12.3 9.5 70 2.8 SSW 13 20 7 11 1016.2 1016.2 21.2
30/05:00am 15.2 11.4 8.9 66 3.2 SW 19 28 10 15 1015.8 1015.8 21.2
30/04:30am 14.9 12.4 10.9 77 2.1 SW 15 24 8 13 1015.5 1015.5 21.2
30/04:00am 14.9 11.3 10.7 76 2.2 SW 20 33 11 18 1015.5 1015.5 21.2
30/03:30am 15.7 12.3 11.1 74 2.5 SW 20 30 11 16 1015.2 1015.2 21.2
30/03:00am 15.7 12.7 10.7 72 2.6 WSW 17 28 9 15 1014.8 1014.8 21.2
30/02:30am 16.1 12.7 10.6 70 2.9 WSW 19 33 10 18 1014.6 1014.6 21.2
30/02:00am 16.1 13.1 12.1 77 2.2 WSW 19 30 10 16 1014.6 1014.6 21.2
30/01:30am 15.5 13.5 12.8 84 1.5 WSW 15 28 8 15 1014.4 1014.4 21.2
30/01:00am 15.9 13.2 12.8 82 1.7 WSW 19 28 10 15 1014.3 1014.3 21.2
30/12:30am 15.8 14.0 14.5 92 0.7 SW 17 28 9 15 1014.1 1014.1 21.2
30/12:00am 15.8 15.6 13.6 87 1.2 W 7 13 4 7 1013.8 1013.8 21.2
 
Date/Time
WST
Tmp

°C
App
Tmp
°C
Dew
Point
°C
Rel
Hum
%
Delta-T

°C
Wind Press
QNH
hPa
Press
MSL
hPa
Rain
since
9 am
mm
Dir
 
Spd
km/h
Gust
km/h
Spd
kts
Gust
kts
29/11:30pm 15.1 15.3 14.6 97 0.3 WSW 7 11 4 6 1013.8 1013.8 21.2
29/11:00pm 15.4 15.8 15.4 100 0.0 WSW 7 11 4 6 1013.7 1013.7 21.2
29/10:30pm 15.7 16.3 15.7 100 0.0 WSW 7 13 4 7 1013.8 1013.8 21.2
29/10:00pm 15.3 15.7 15.3 100 0.0 WSW 7 11 4 6 1013.8 1013.8 20.8
29/09:30pm 15.3 15.9 15.3 100 0.0 WSW 6 9 3 5 1013.8 1013.8 20.8
29/09:00pm 15.4 14.7 15.4 100 0.0 SW 13 20 7 11 1013.6 1013.6 20.8
29/08:30pm 15.9 16.2 15.9 100 0.0 W 9 19 5 10 1013.4 1013.4 16.4
29/08:00pm 16.1 16.0 16.1 100 0.0 WSW 11 19 6 10 1013.0 1013.0 13.6
29/07:30pm 16.0 15.2 16.0 100 0.0 W 15 30 8 16 1012.6 1012.6 13.4
29/07:00pm 16.3 17.7 16.3 100 0.0 W 4 4 2 2 1012.2 1012.2 6.2
29/06:30pm 15.8 17.3 15.8 100 0.0 W 2 6 1 3 1012.2 1012.2 6.2
29/06:00pm 16.0 16.7 16.0 100 0.0 WSW 7 11 4 6 1011.9 1011.9 6.2
29/05:30pm 16.3 13.5 15.3 94 0.6 W 24 46 13 25 1011.8 1011.8 5.8
29/05:25pm 16.9 15.0 15.2 90 1.0 WNW 19 46 10 25 1011.8 1011.8 4.6
29/05:00pm 18.0 17.0 14.7 81 1.9 WNW 13 17 7 9 1011.5 1011.5 1.4
29/04:30pm 18.6 16.4 14.5 77 2.4 WNW 19 26 10 14 1011.4 1011.4 1.4
29/04:00pm 18.7 16.5 14.4 76 2.5 WNW 19 24 10 13 1011.4 1011.4 1.4
29/03:30pm 18.9 16.3 14.8 77 2.4 WNW 22 28 12 15 1011.4 1011.4 1.4
29/03:00pm 18.8 15.5 15.1 79 2.2 WNW 26 32 14 17 1011.3 1011.3 1.4
29/02:30pm 18.9 15.4 15.4 80 2.1 WNW 28 35 15 19 1011.3 1011.3 1.4
29/02:00pm 18.7 14.7 16.1 85 1.5 WNW 32 39 17 21 1011.0 1011.0 1.4
29/01:30pm 18.4 14.0 16.6 89 1.1 NW 35 43 19 23 1010.7 1010.7 1.4
29/01:00pm 17.7 14.3 17.7 100 0.0 NNW 32 43 17 23 1010.9 1010.9 0.4
29/12:30pm 18.1 13.7 17.6 97 0.3 N 37 44 20 24 1011.1 1011.1 0.4
29/12:00pm 18.2 13.3 18.2 100 0.0 N 41 50 22 27 1011.4 1011.4 0.4
29/11:30am 17.2 12.6 17.2 100 0.0 N 37 44 20 24 1012.0 1012.0 0.2
29/11:00am 17.2 12.9 17.0 99 0.1 N 35 46 19 25 1012.0 1012.0 0.0
29/10:30am 17.2 12.9 16.9 98 0.2 N 35 46 19 25 1012.2 1012.2 0.0
29/10:00am 17.3 13.7 17.1 99 0.1 N 32 37 17 20 1012.3 1012.3 0.0
29/09:30am 16.6 13.5 16.6 100 0.0 NNE 28 37 15 20 1012.6 1012.6 0.0
29/09:00am 16.3 13.5 16.3 100 0.0 N 26 32 14 17 1013.0 1013.0 16.2
29/08:30am 16.0 12.7 16.0 100 0.0 N 28 32 15 17 1013.0 1013.0 16.2
29/08:00am 16.1 12.8 16.1 100 0.0 NNE 28 32 15 17 1012.7 1012.7 16.2
29/07:30am 15.6 13.3 15.6 100 0.0 NNE 22 26 12 14 1012.8 1012.8 16.2
29/07:00am 15.5 14.1 15.5 100 0.0 NNE 17 20 9 11 1012.5 1012.5 16.2
29/06:30am 15.4 13.9 15.4 100 0.0 NNE 17 19 9 10 1012.4 1012.4 16.2
29/06:00am 15.4 14.3 15.4 100 0.0 NNE 15 19 8 10 1012.3 1012.3 16.2
29/05:30am 15.5 14.8 15.5 100 0.0 NNE 13 17 7 9 1012.2 1012.2 16.2
29/05:00am 15.5 14.8 15.5 100 0.0 NNE 13 17 7 9 1012.2 1012.2 16.2
29/04:30am 15.7 14.7 15.7 100 0.0 NNE 15 17 8 9 1012.3 1012.3 16.2
29/04:00am 15.7 15.1 15.7 100 0.0 NNE 13 19 7 10 1012.3 1012.3 16.2
29/03:30am 15.9 15.4 15.9 100 0.0 NNE 13 17 7 9 1012.5 1012.5 16.2
29/03:00am 16.0 15.2 16.0 100 0.0 NNE 15 20 8 11 1012.7 1012.7 16.2
29/02:30am 16.3 15.6 16.3 100 0.0 NNE 15 20 8 11 1012.9 1012.9 16.2
29/02:00am 16.4 14.9 16.4 100 0.0 NNE 19 22 10 12 1013.3 1013.3 16.2
29/01:30am 16.4 15.7 16.4 100 0.0 N 15 19 8 10 1013.6 1013.6 16.2
29/01:00am 16.4 16.1 16.4 100 0.0 NNE 13 17 7 9 1013.8 1013.8 16.2
29/12:30am 16.6 16.4 16.6 100 0.0 N 13 15 7 8 1014.0 1014.0 16.2
29/12:00am 16.5 16.2 16.5 100 0.0 NNE 13 17 7 9 1014.2 1014.2 16.2
 
Date/Time
WST
Tmp

°C
App
Tmp
°C
Dew
Point
°C
Rel
Hum
%
Delta-T

°C
Wind Press
QNH
hPa
Press
MSL
hPa
Rain
since
9 am
mm
Dir
 
Spd
km/h
Gust
km/h
Spd
kts
Gust
kts
28/11:30pm 16.7 15.7 16.7 100 0.0 NNE 17 20 9 11 1014.4 1014.4 16.2
28/11:00pm 16.8 16.3 16.8 100 0.0 NNE 15 19 8 10 1014.7 1014.7 16.2
28/10:30pm 16.7 17.2 16.5 99 0.1 NNE 9 11 5 6 1015.2 1015.2 16.2
28/10:00pm 16.8 17.9 16.6 99 0.1 N 6 7 3 4 1015.5 1015.5 16.2
28/09:30pm 17.0 18.1 17.0 100 0.0 NNE 7 11 4 6 1015.6 1015.6 16.0
28/09:00pm 16.8 16.6 15.7 93 0.6 NNE 11 13 6 7 1015.5 1015.5 16.0
28/08:30pm 16.8 17.7 16.2 96 0.4 NNE 6 7 3 4 1015.4 1015.4 16.0
28/08:00pm 16.6 18.3 15.3 92 0.8 CALM 0 0 0 0 1015.3 1015.3 16.0
28/07:30pm 16.2 17.7 14.6 90 0.9 CALM 0 0 0 0 1015.4 1015.4 16.0
28/07:00pm 16.4 17.7 14.1 86 1.3 CALM 0 0 0 0 1015.1 1015.1 16.0
28/06:30pm 16.9 18.0 13.4 80 2.0 CALM 0 0 0 0 1014.8 1014.8 16.0
28/06:00pm 17.5 18.8 14.2 81 1.9 CALM 0 0 0 0 1014.6 1014.6 16.0
28/05:30pm 18.3 18.9 14.2 77 2.4 WNW 4 4 2 2 1014.5 1014.5 16.0
28/05:00pm 18.6 19.5 14.1 75 2.6 WNW 2 4 1 2 1014.4 1014.4 16.0
28/04:30pm 18.9 18.9 13.5 71 3.1 WNW 6 7 3 4 1014.4 1014.4 16.0
28/04:00pm 19.2 19.5 13.4 69 3.3 W 4 7 2 4 1014.2 1014.2 16.0
28/03:30pm 19.3 19.1 13.7 70 3.2 W 7 11 4 6 1014.3 1014.3 16.0
28/03:00pm 19.8 19.7 14.0 69 3.3 WSW 7 9 4 5 1014.2 1014.2 16.0
28/02:30pm 19.6 20.0 15.3 76 2.5 WNW 7 11 4 6 1014.1 1014.1 15.8
28/02:00pm 19.1 19.7 15.8 81 2.0 NW 7 9 4 5 1014.3 1014.3 15.8
28/01:30pm 19.8 20.6 15.9 78 2.3 NW 6 11 3 6 1014.4 1014.4 15.8
28/01:00pm 19.6 20.1 15.5 77 2.4 W 7 13 4 7 1014.7 1014.7 15.8
28/12:30pm 18.6 20.3 18.1 97 0.3 NW 6 7 3 4 1015.1 1015.1 15.8
28/12:00pm 17.8 19.2 17.8 100 0.0 WNW 7 11 4 6 1015.4 1015.4 15.8
28/11:30am 17.6 18.9 17.6 100 0.0 SW 7 9 4 5 1015.3 1015.3 15.8
28/11:00am 16.4 15.3 16.4 100 0.0 WNW 17 32 9 17 1015.4 1015.4 15.6
28/10:30am 17.6 16.1 17.6 100 0.0 N 22 30 12 16 1015.1 1015.1 5.8
28/10:00am 17.1 15.0 17.1 100 0.0 N 24 32 13 17 1015.3 1015.3 5.6
28/09:30am 16.4 14.9 16.4 100 0.0 N 19 28 10 15 1015.5 1015.5 5.6
28/09:00am 16.2 14.5 16.2 100 0.0 N 20 24 11 13 1015.3 1015.3 0.2
28/08:30am 15.4 15.1 15.4 100 0.0 NNE 11 15 6 8 1015.2 1015.2 0.2
28/08:00am 14.9 14.8 14.9 100 0.0 NNE 9 13 5 7 1015.1 1015.1 0.2
28/07:30am 14.8 13.1 14.8 100 0.0 NNE 17 24 9 13 1014.8 1014.8 0.0
28/07:00am 14.5 12.1 14.5 100 0.0 NNE 20 24 11 13 1014.3 1014.3 0.0
28/06:30am 14.4 12.2 14.4 100 0.0 NNE 19 22 10 12 1014.2 1014.2 0.0
28/06:00am 14.4 12.6 14.4 100 0.0 NNE 17 20 9 11 1014.2 1014.2 0.0
28/05:30am 14.3 12.1 14.3 100 0.0 NNE 19 24 10 13 1014.2 1014.2 0.0
28/05:00am 14.5 12.7 14.5 100 0.0 NNE 17 20 9 11 1014.2 1014.2 0.0
28/04:30am 14.8 13.5 14.8 100 0.0 NNE 15 20 8 11 1014.2 1014.2 0.0
28/04:00am 15.3 13.2 15.3 100 0.0 NNE 20 24 11 13 1014.0 1014.0 0.0
28/03:30am 15.4 13.4 15.4 100 0.0 N 20 24 11 13 1014.0 1014.0 0.0
28/03:00am 15.4 13.4 15.4 100 0.0 NNE 20 24 11 13 1014.0 1014.0 0.0
28/02:30am 15.5 13.7 15.5 100 0.0 NNE 19 24 10 13 1014.1 1014.1 0.0
28/02:00am 15.2 13.9 14.9 98 0.2 NNE 15 19 8 10 1014.1 1014.1 0.0
28/01:30am 15.4 14.0 14.6 95 0.5 NNE 15 20 8 11 1014.1 1014.1 0.0
28/01:00am 15.6 13.3 14.1 91 0.8 NNE 19 20 10 11 1014.0 1014.0 0.0
28/12:30am 15.6 13.5 13.6 88 1.1 NNE 17 22 9 12 1013.9 1013.9 0.0
28/12:00am 16.2 13.6 13.3 83 1.6 NNE 19 20 10 11 1013.9 1013.9 0.0
 
Date/Time
WST
Tmp

°C
App
Tmp
°C
Dew
Point
°C
Rel
Hum
%
Delta-T

°C
Wind Press
QNH
hPa
Press
MSL
hPa
Rain
since
9 am
mm
Dir
 
Spd
km/h
Gust
km/h
Spd
kts
Gust
kts
27/11:30pm 16.6 14.2 12.8 78 2.1 NNE 17 20 9 11 1013.9 1013.9 0.0
27/11:00pm 16.4 14.4 11.6 73 2.6 NNE 13 15 7 8 1014.2 1014.2 0.0
27/10:30pm 16.6 14.4 10.9 69 3.0 NE 13 15 7 8 1014.3 1014.3 0.0
27/10:00pm 16.7 14.8 11.8 73 2.7 NE 13 17 7 9 1014.3 1014.3 0.0
27/09:30pm 17.2 16.8 14.1 82 1.8 N 9 13 5 7 1014.3 1014.3 0.0
27/09:00pm 17.2 16.7 13.7 80 2.0 NNE 9 11 5 6 1014.4 1014.4 0.0
27/08:30pm 16.8 16.8 13.5 81 1.9 NE 6 7 3 4 1014.1 1014.1 0.0
27/08:00pm 17.4 18.2 12.5 73 2.7 CALM 0 6 0 3 1014.1 1014.1 0.0
27/07:30pm 17.2 17.7 11.5 69 3.1 CALM 0 0 0 0 1013.9 1013.9 0.0
27/07:00pm 18.2 18.7 11.5 65 3.7 CALM 0 0 0 0 1013.7 1013.7 0.0
27/06:30pm 18.9 18.7 11.7 63 4.0 NE 4 6 2 3 1013.6 1013.6 0.0
27/06:00pm 19.7 19.9 12.0 61 4.3 NNW 2 4 1 2 1013.5 1013.5 0.0
27/05:30pm 19.8 20.1 12.3 62 4.2 NNW 2 6 1 3 1013.4 1013.4 0.0
27/05:00pm 20.0 20.0 12.5 62 4.2 NNE 4 6 2 3 1013.2 1013.2 0.0
27/04:30pm 20.1 18.9 12.8 63 4.1 NNW 11 13 6 7 1013.3 1013.3 0.0
27/04:00pm 20.9 20.1 11.8 56 5.1 NNW 7 9 4 5 1013.4 1013.4 0.0

Latest Capital City Observations: Canberra | Sydney | Melbourne | Brisbane | Adelaide | Perth | Hobart | Darwin

Other Formats:

Comma delimited format used in spreadsheet applications
http://www.bom.gov.au/fwo/IDW60901/IDW60901.94605.axf

JavaScript Object Notation format (JSON) in row-major order
http://www.bom.gov.au/fwo/IDW60901/IDW60901.94605.json